« 定点 富山空港 2018/7/20 fri | トップページ | 定点+ 富山空港 2018/7/30 mon »

2018/07/29

空旅 ANA1181富山-新千歳 2018/7/20 fri

久しぶりの富山空港からの搭乗。レガシーキャリアもご無沙汰。

RJNT 200220Z 36005KT 320V100 8000 FEW030 34/26 Q1010 RMK 1CU030 A2984

20180720_ana1181_00ja560y

搭乗席は10K

20180720_ana1181_01ja560y

丁度ヤンキーさんが出発

20180720_ana1181_02ja560y

JA560Y C560 YSP

20180720_ana1181_03ja560y

20180720_ana1181_04ja560y

オワも乗せてー

20180720_ana1181_05rjnt

さて、本機もラインアップへ

20180720_ana1181_06rjnt

RW02エンド

20180720_ana1181_07b18612

CAL170 RCTP-RJNT B-18612 B737-809

いつの間にか到着していた

20180720_ana1181_08toyama

エアボーン 北陸フリーウェイをひととっび

20180720_ana1181_09toyama

富山ステーション

20180720_ana1181_10iwase

神通リバーマウス

20180720_ana1181_11tateyama

この辺で変進

20180720_ana1181_12kurobe

黒部リバー

RJNT 200300Z 35005KT 290V040 8000 FEW030 34/25 Q1010

RJCC 200300Z 16013KT 1600 R19R/P2000N R19L/P2000N BR SCT001 BKN002 21/20 Q1010

20180720_ana1181_13sado

機上WiFiが無料ならばと、初挑戦。もう佐渡やがい。

20180720_ana1181_14rjsy

遠く庄内空港

20180720_ana1181_15ja336j

地上監視員から90度の方向にストレンジャーの報

20180720_ana1181_16ja336j

同じ新千歳に向かっているJAL機の模様

20180720_ana1181_17ja336j

JAL3105 RJGG-RJCC JA336J B737-846

20180720_ana1181_18ja336j

我乗機が2000ft下、ほとんど重なるかなまで接近したところで、本機が西に振られた模様

20180720_ana1181_19tappi

珍しく竜飛岬の西側を飛行することに

RJCC 200400Z 16014KT 6000 FEW003 BKN005 22/20 Q1009 RMK 1ST003 6ST005 A2982

20180720_ana1181_20chitose

先のJAL機の後ろに入って、ヒートドライ

20180720_ana1181_21chitose

千歳は薄い雲が低いところを覆っている状況

20180720_ana1181_22rjcj

政府専用機の尻尾インサイト

20180720_ana1181_23rjcc

RW19Lスレッショルド

20180720_ana1181_24ja336j

先行機を再度インサイト

20180720_ana1181_25rjcc

クロスランウェィ19R

20180720_ana1181_26rjcc

20180720_ana1181_27ja8984

JAL513 RJTT-RJCC JA8984 B777-246

20180720_ana1181_28hl7210

ABL181 RJCC-RKPK HL7210 A321-231

20180720_ana1181_29rjcc

新千歳空港に到着

|

« 定点 富山空港 2018/7/20 fri | トップページ | 定点+ 富山空港 2018/7/30 mon »

富山空港」カテゴリの記事

千歳飛行場」カテゴリの記事

空撮」カテゴリの記事

Boading record aircraft」カテゴリの記事

コメント

コメントを書く



(ウェブ上には掲載しません)


コメントは記事投稿者が公開するまで表示されません。



トラックバック


この記事へのトラックバック一覧です: 空旅 ANA1181富山-新千歳 2018/7/20 fri:

« 定点 富山空港 2018/7/20 fri | トップページ | 定点+ 富山空港 2018/7/30 mon »